»·PEaware :: NGF683 KBAM-KBAB

NGF683 :: KBAM-KBAB

FLIGHT INFORMATION

Flight Status: Arrived
Operator: Unknown
More flights by this operator :: More flights under this callsign
Pilot: Roland C. (21206)
Aircraft: BEECH AIRCRAFT SUPER KING AIR 350
(B350)
More flights by this aircraft type
Origin: KBAM Battle Mountain
United States
Destination: KBAB Beale AFB
United States
More flights between these airports :: More routes between these airports
Route: +BAM T331 LLC V6 FMG V392 AUDIO
File this flight plan on PilotEdge
Remarks:
Altitude:
(Current/Filed)
26,000ft
Speed:
(Current/Filed)
300kts
Departed: 23-May-20 11:31 AM
Arrived: 23-May-20 12:35 PM
Distance/Time
Traveled:
227nm/1:04
Distance/Time
To Go:
Arrived

Flight Plot

Page will automatically refresh every two minutes.

Flight plan parsing failed; only flown route is shown


Map Options




Map Legend


Flown Route
Filed Route
Departure Airport
Arrival Airport
Navaid (VOR, NDB)
Fix

Horizontal Profiles

Position Reports

Time Latitude Longitude Heading Altitude Ground
Speed
23-May-20 11:07 40.606846 -116.874824 262 4532ft 0kts
23-May-20 11:08 40.606846 -116.874824 262 4532ft 0kts
23-May-20 11:09 40.606846 -116.874824 262 4532ft 0kts
23-May-20 11:10 40.606846 -116.874824 262 4532ft 0kts
23-May-20 11:11 40.606846 -116.874824 262 4532ft 0kts
23-May-20 11:12 40.606846 -116.874824 262 4532ft 0kts
23-May-20 11:13 40.606846 -116.874824 262 4532ft 0kts
23-May-20 11:14 40.606846 -116.874824 262 4532ft 0kts
23-May-20 11:15 40.606846 -116.874824 262 4532ft 0kts
23-May-20 11:16 40.606846 -116.874824 262 4532ft 0kts
23-May-20 11:17 40.606846 -116.874824 262 4532ft 0kts
23-May-20 11:18 40.606846 -116.874824 262 4532ft 0kts
23-May-20 11:19 40.606846 -116.874824 262 4532ft 0kts
23-May-20 11:20 40.606839 -116.874897 262 4532ft 2kts
23-May-20 11:21 40.605976 -116.875222 83 4532ft 0kts
23-May-20 11:22 40.606025 -116.874951 81 4533ft 6kts
23-May-20 11:23 40.602306 -116.875493 194 4532ft 20kts
23-May-20 11:24 40.597088 -116.872863 137 4532ft 25kts
23-May-20 11:25 40.591834 -116.866907 137 4535ft 21kts
23-May-20 11:26 40.591661 -116.866293 97 4536ft 8kts
23-May-20 11:27 40.591536 -116.866191 196 4536ft 0kts
23-May-20 11:28 40.591536 -116.866191 196 4536ft 0kts
23-May-20 11:29 40.591536 -116.866191 196 4536ft 0kts
23-May-20 11:30 40.597425 -116.873327 319 4533ft 114kts
23-May-20 11:31 40.625056 -116.906591 310 5994ft 144kts
23-May-20 11:32 40.618578 -116.952598 213 7987ft 155kts
23-May-20 11:33 40.579588 -116.978492 170 9780ft 173kts
23-May-20 11:34 40.566923 -116.918097 121 10997ft 193kts
23-May-20 11:35 40.535244 -116.936299 286 12671ft 164kts
23-May-20 11:36 40.543882 -116.994481 285 14269ft 163kts
23-May-20 11:37 40.533791 -117.057620 258 15209ft 196kts
23-May-20 11:38 40.516469 -117.124297 258 16373ft 193kts
23-May-20 11:39 40.499200 -117.190288 259 17511ft 191kts
23-May-20 11:40 40.481843 -117.256423 260 18651ft 191kts
23-May-20 11:41 40.464553 -117.322114 260 19859ft 190kts
23-May-20 11:42 40.447352 -117.387302 261 21099ft 190kts
23-May-20 11:43 40.430041 -117.452735 261 22389ft 189kts
23-May-20 11:44 40.412760 -117.517848 262 23698ft 189kts
23-May-20 11:45 40.395516 -117.582686 262 25037ft 188kts
23-May-20 11:46 40.378193 -117.647756 261 26197ft 196kts
23-May-20 11:47 40.358502 -117.721496 259 26186ft 228kts
23-May-20 11:48 40.336470 -117.803629 258 26183ft 249kts
23-May-20 11:49 40.312764 -117.891708 258 26177ft 264kts
23-May-20 11:50 40.287777 -117.984201 257 26168ft 274kts
23-May-20 11:51 40.261949 -118.079450 257 26159ft 280kts
23-May-20 11:52 40.235666 -118.176015 257 26157ft 284kts
23-May-20 11:53 40.208710 -118.274704 257 25291ft 293kts
23-May-20 11:54 40.181659 -118.373217 258 24140ft 276kts
23-May-20 11:55 40.156948 -118.462968 259 24151ft 253kts
23-May-20 11:56 40.132544 -118.551460 258 23056ft 268kts
23-May-20 11:57 40.092767 -118.637572 242 21602ft 285kts
23-May-20 11:58 40.046557 -118.722679 241 20143ft 287kts
23-May-20 11:59 40.000252 -118.807689 241 18683ft 287kts
23-May-20 12:00 39.954176 -118.892061 240 17219ft 285kts
23-May-20 12:01 39.908292 -118.975820 239 16069ft 283kts
23-May-20 12:02 39.862768 -119.058704 239 16071ft 282kts
23-May-20 12:03 39.816293 -119.143126 239 16072ft 291kts
23-May-20 12:04 39.768628 -119.229464 239 16073ft 298kts
23-May-20 12:05 39.718787 -119.319508 238 16072ft 311kts
23-May-20 12:06 39.668025 -119.411004 238 16070ft 313kts
23-May-20 12:07 39.617010 -119.502690 238 16067ft 313kts
23-May-20 12:08 39.566042 -119.594034 238 16064ft 313kts
23-May-20 12:09 39.525081 -119.690914 261 16081ft 303kts
23-May-20 12:10 39.505419 -119.797439 260 16054ft 304kts
23-May-20 12:11 39.485748 -119.904011 260 16055ft 304kts
23-May-20 12:12 39.465920 -120.010863 260 16053ft 304kts
23-May-20 12:13 39.445993 -120.117732 260 15987ft 306kts
23-May-20 12:14 39.425884 -120.224938 260 15917ft 307kts
23-May-20 12:15 39.405576 -120.332608 260 15897ft 306kts
23-May-20 12:16 39.385287 -120.439603 260 15899ft 306kts
23-May-20 12:18 39.364888 -120.546589 261 15897ft 306kts
23-May-20 12:19 39.336852 -120.649408 225 15886ft 320kts
23-May-20 12:20 39.267034 -120.721285 222 15899ft 320kts
23-May-20 12:21 39.202608 -120.798778 230 15736ft 320kts
23-May-20 12:22 39.141282 -120.882910 230 14235ft 302kts
23-May-20 12:23 39.087804 -120.956299 229 12685ft 264kts
23-May-20 12:24 39.040167 -121.021526 228 11113ft 243kts
23-May-20 12:25 38.994206 -121.084310 227 9109ft 237kts
23-May-20 12:26 38.950088 -121.144454 228 7115ft 229kts
23-May-20 12:27 38.928070 -121.218612 253 5128ft 222kts
23-May-20 12:28 38.909317 -121.292701 253 3259ft 212kts
23-May-20 12:29 38.927814 -121.346211 340 2316ft 209kts
23-May-20 12:30 38.981156 -121.369566 339 1614ft 155kts
23-May-20 12:31 39.018190 -121.385608 340 1616ft 152kts
23-May-20 12:32 39.053371 -121.400777 340 1484ft 118kts
23-May-20 12:32 39.080016 -121.412308 340 1009ft 121kts
23-May-20 12:34 39.116083 -121.427908 339 276ft 113kts
23-May-20 12:35 39.136754 -121.437004 343 106ft 35kts
23-May-20 12:35 39.140331 -121.437035 70 103ft 0kts
23-May-20 12:36 39.140331 -121.437035 70 103ft 0kts
23-May-20 12:38 39.140964 -121.433457 127 131ft 9kts
23-May-20 12:38 39.137809 -121.431533 84 134ft 13kts
23-May-20 12:39 39.138915 -121.430298 263 141ft 0kts
23-May-20 12:40 39.138915 -121.430298 263 141ft 0kts

Navigation Log

Ident Type
Flight plan parsing failed, navigation log unavailable